Time,TemperatureF,DewpointF,PressureIn,WindDirection,WindDirectionDegrees,WindSpeedMPH,WindSpeedGustMPH,Humidity,HourlyPrecipIn,Conditions,Clouds,dailyrainin,SoftwareType,DateUTC
2013-05-19 00:01:00,69.6,64.8,29.61,SE,135,0.0,0.0,85,0.00,,,0.00,WUHU21623XXSP,2013-05-19 04:01:00,
2013-05-19 00:02:00,69.6,64.8,29.62,SE,135,0.0,0.0,85,0.00,,,0.00,WUHU21623XXSP,2013-05-19 04:02:00,
2013-05-19 00:07:00,69.4,64.7,29.62,SW,225,0.0,1.1,85,0.00,,,0.00,WUHU21623XXSP,2013-05-19 04:07:00,
2013-05-19 00:12:00,69.4,64.7,29.62,SSE,157,0.0,1.1,85,0.00,,,0.00,WUHU21623XXSP,2013-05-19 04:12:00,
2013-05-19 00:17:00,69.3,64.5,29.62,SE,135,0.0,0.0,85,0.00,,,0.00,WUHU21623XXSP,2013-05-19 04:17:00,
2013-05-19 00:22:00,69.3,64.5,29.62,ESE,112,0.0,2.9,85,0.00,,,0.00,WUHU21623XXSP,2013-05-19 04:22:00,
2013-05-19 00:27:00,69.1,64.3,29.62,SSE,157,0.0,2.9,85,0.00,,,0.00,WUHU21623XXSP,2013-05-19 04:27:00,
2013-05-19 00:32:00,69.1,64.3,29.62,South,180,0.0,0.0,85,0.00,,,0.00,WUHU21623XXSP,2013-05-19 04:32:00,
2013-05-19 00:37:00,69.1,64.3,29.62,SSE,157,0.0,0.0,85,0.00,,,0.00,WUHU21623XXSP,2013-05-19 04:37:00,
2013-05-19 00:42:00,68.9,64.2,29.62,South,180,0.0,0.0,85,0.00,,,0.00,WUHU21623XXSP,2013-05-19 04:42:00,
2013-05-19 00:47:00,68.7,64.0,29.62,SE,135,0.0,0.0,85,0.00,,,0.00,WUHU21623XXSP,2013-05-19 04:47:00,
2013-05-19 00:52:00,68.7,64.0,29.62,SE,135,0.0,0.0,85,0.00,,,0.00,WUHU21623XXSP,2013-05-19 04:52:00,
2013-05-19 00:57:00,68.5,63.8,29.62,SSE,157,0.0,0.0,85,0.00,,,0.00,WUHU21623XXSP,2013-05-19 04:57:00,
2013-05-19 01:02:00,68.5,63.8,29.62,SSE,157,0.0,0.0,85,0.00,,,0.00,WUHU21623XXSP,2013-05-19 05:02:00,
2013-05-19 01:07:00,68.5,64.1,29.62,SE,135,0.0,0.0,86,0.00,,,0.00,WUHU21623XXSP,2013-05-19 05:07:00,
2013-05-19 01:12:00,68.5,64.1,29.62,SSE,157,0.0,0.0,86,0.00,,,0.00,WUHU21623XXSP,2013-05-19 05:12:00,
2013-05-19 01:17:00,68.5,64.1,29.62,SE,135,0.0,0.0,86,0.00,,,0.00,WUHU21623XXSP,2013-05-19 05:17:00,
2013-05-19 01:22:00,68.5,64.1,29.62,SSE,157,0.0,0.7,86,0.00,,,0.00,WUHU21623XXSP,2013-05-19 05:22:00,
2013-05-19 01:27:00,68.4,64.0,29.61,South,180,0.0,0.7,86,0.00,,,0.00,WUHU21623XXSP,2013-05-19 05:27:00,
2013-05-19 01:32:00,68.2,63.8,29.61,SSW,202,0.0,0.0,86,0.00,,,0.00,WUHU21623XXSP,2013-05-19 05:32:00,
2013-05-19 01:37:00,67.8,63.5,29.61,SSE,157,0.0,0.0,86,0.00,,,0.00,WUHU21623XXSP,2013-05-19 05:37:00,
2013-05-19 01:42:00,67.8,63.8,29.61,SSE,157,0.0,0.0,87,0.00,,,0.00,WUHU21623XXSP,2013-05-19 05:42:00,
2013-05-19 01:47:00,67.6,63.6,29.61,South,180,0.0,0.0,87,0.00,,,0.00,WUHU21623XXSP,2013-05-19 05:47:00,
2013-05-19 01:52:00,67.5,63.4,29.61,SW,225,0.0,0.0,87,0.00,,,0.00,WUHU21623XXSP,2013-05-19 05:52:00,
2013-05-19 01:57:00,67.3,63.2,29.61,ESE,112,0.0,0.0,87,0.00,,,0.00,WUHU21623XXSP,2013-05-19 05:57:00,
2013-05-19 02:02:00,67.3,63.6,29.61,SSW,202,0.0,2.9,88,0.00,,,0.00,WUHU21623XXSP,2013-05-19 06:02:00,
2013-05-19 02:07:00,67.3,63.6,29.61,SSW,202,0.0,2.9,88,0.00,,,0.00,WUHU21623XXSP,2013-05-19 06:07:00,
2013-05-19 02:12:00,67.3,63.6,29.60,SSW,202,0.0,0.0,88,0.00,,,0.00,WUHU21623XXSP,2013-05-19 06:12:00,
2013-05-19 02:17:00,67.5,63.8,29.60,SSW,202,0.0,1.1,88,0.00,,,0.00,WUHU21623XXSP,2013-05-19 06:17:00,
2013-05-19 02:22:00,67.6,63.9,29.61,SSE,157,0.0,1.1,88,0.00,,,0.00,WUHU21623XXSP,2013-05-19 06:22:00,
2013-05-19 02:27:00,67.6,63.9,29.61,SSE,157,0.0,0.0,88,0.00,,,0.00,WUHU21623XXSP,2013-05-19 06:27:00,
2013-05-19 02:32:00,67.6,63.9,29.61,SSE,157,0.0,0.0,88,0.00,,,0.00,WUHU21623XXSP,2013-05-19 06:32:00,
2013-05-19 02:37:00,67.6,63.9,29.61,SE,135,0.0,0.0,88,0.00,,,0.00,WUHU21623XXSP,2013-05-19 06:37:00,
2013-05-19 02:42:00,67.6,63.9,29.60,SSE,157,0.0,0.0,88,0.00,,,0.00,WUHU21623XXSP,2013-05-19 06:42:00,
2013-05-19 02:47:00,67.6,63.9,29.60,SSW,202,0.0,0.0,88,0.00,,,0.00,WUHU21623XXSP,2013-05-19 06:47:00,
2013-05-19 02:52:00,67.6,63.9,29.60,SSE,157,0.0,0.0,88,0.00,,,0.00,WUHU21623XXSP,2013-05-19 06:52:00,
2013-05-19 02:57:00,67.6,63.9,29.60,South,180,0.0,0.0,88,0.00,,,0.00,WUHU21623XXSP,2013-05-19 06:57:00,
2013-05-19 03:02:00,67.3,63.6,29.60,SSE,157,0.0,0.0,88,0.00,,,0.00,WUHU21623XXSP,2013-05-19 07:02:00,
2013-05-19 03:07:00,67.3,63.6,29.60,South,180,0.0,0.0,88,0.00,,,0.00,WUHU21623XXSP,2013-05-19 07:07:00,
2013-05-19 03:12:00,67.1,63.4,29.60,SE,135,0.0,0.0,88,0.00,,,0.00,WUHU21623XXSP,2013-05-19 07:12:00,
2013-05-19 03:17:00,66.9,63.2,29.60,SE,135,0.0,0.0,88,0.00,,,0.00,WUHU21623XXSP,2013-05-19 07:17:00,
2013-05-19 03:22:00,66.9,63.2,29.60,SE,135,0.0,0.0,88,0.00,,,0.00,WUHU21623XXSP,2013-05-19 07:22:00,
2013-05-19 03:27:00,67.1,63.7,29.60,SSE,157,0.0,0.0,89,0.00,,,0.00,WUHU21623XXSP,2013-05-19 07:27:00,
2013-05-19 03:32:00,67.1,63.7,29.60,SSE,157,0.0,0.0,89,0.00,,,0.00,WUHU21623XXSP,2013-05-19 07:32:00,
2013-05-19 03:37:00,67.3,63.9,29.59,SSW,202,0.0,0.0,89,0.00,,,0.00,WUHU21623XXSP,2013-05-19 07:37:00,
2013-05-19 03:42:00,67.3,63.9,29.59,SSE,157,0.0,0.0,89,0.00,,,0.00,WUHU21623XXSP,2013-05-19 07:42:00,
2013-05-19 03:47:00,67.3,63.9,29.59,SW,225,0.0,0.0,89,0.00,,,0.00,WUHU21623XXSP,2013-05-19 07:47:00,
2013-05-19 03:52:00,67.3,63.9,29.59,SSE,157,0.0,0.0,89,0.00,,,0.00,WUHU21623XXSP,2013-05-19 07:52:00,
2013-05-19 03:57:00,67.3,63.9,29.59,SSE,157,0.0,0.0,89,0.00,,,0.00,WUHU21623XXSP,2013-05-19 07:57:00,
2013-05-19 04:02:00,67.3,63.9,29.59,SSE,157,0.0,0.0,89,0.00,,,0.00,WUHU21623XXSP,2013-05-19 08:02:00,
2013-05-19 04:07:00,67.5,64.1,29.59,SSE,157,0.0,0.0,89,0.00,,,0.00,WUHU21623XXSP,2013-05-19 08:07:00,
2013-05-19 04:12:00,67.6,64.3,29.59,SSE,157,0.0,0.0,89,0.00,,,0.00,WUHU21623XXSP,2013-05-19 08:12:00,
2013-05-19 04:17:00,67.5,64.1,29.59,South,180,0.0,0.0,89,0.00,,,0.00,WUHU21623XXSP,2013-05-19 08:17:00,
2013-05-19 04:22:00,67.6,64.3,29.59,SE,135,0.0,0.0,89,0.00,,,0.00,WUHU21623XXSP,2013-05-19 08:22:00,
2013-05-19 04:27:00,67.6,63.9,29.59,SE,135,0.0,0.0,88,0.00,,,0.00,WUHU21623XXSP,2013-05-19 08:27:00,
2013-05-19 04:32:00,67.6,63.9,29.59,South,180,0.0,0.0,88,0.00,,,0.00,WUHU21623XXSP,2013-05-19 08:32:00,
2013-05-19 04:37:00,67.5,63.8,29.59,South,180,0.0,0.0,88,0.00,,,0.00,WUHU21623XXSP,2013-05-19 08:37:00,
2013-05-19 04:42:00,67.5,63.8,29.60,SE,135,0.0,0.0,88,0.00,,,0.00,WUHU21623XXSP,2013-05-19 08:42:00,
2013-05-19 04:47:00,67.5,63.8,29.60,South,180,0.0,0.0,88,0.00,,,0.00,WUHU21623XXSP,2013-05-19 08:47:00,
2013-05-19 04:52:00,67.3,63.6,29.60,South,180,0.0,0.0,88,0.00,,,0.00,WUHU21623XXSP,2013-05-19 08:52:00,
2013-05-19 04:57:00,67.3,63.6,29.60,South,180,0.0,0.0,88,0.00,,,0.00,WUHU21623XXSP,2013-05-19 08:57:00,
2013-05-19 05:02:00,67.3,63.6,29.59,South,180,0.0,0.0,88,0.00,,,0.00,WUHU21623XXSP,2013-05-19 09:02:00,
2013-05-19 05:07:00,67.3,63.6,29.59,SW,225,0.0,0.0,88,0.00,,,0.00,WUHU21623XXSP,2013-05-19 09:07:00,
2013-05-19 05:12:00,67.1,63.4,29.59,SSE,157,0.0,6.3,88,0.00,,,0.00,WUHU21623XXSP,2013-05-19 09:12:00,
2013-05-19 05:17:00,66.9,63.2,29.58,SSE,157,0.0,6.3,88,0.00,,,0.00,WUHU21623XXSP,2013-05-19 09:17:00,
2013-05-19 05:22:00,66.9,63.5,29.59,SW,225,0.0,0.0,89,0.00,,,0.00,WUHU21623XXSP,2013-05-19 09:22:00,
2013-05-19 05:27:00,66.7,63.4,29.59,SSE,157,0.0,0.0,89,0.00,,,0.00,WUHU21623XXSP,2013-05-19 09:27:00,
2013-05-19 05:32:00,66.9,63.5,29.60,SSE,157,0.0,0.0,89,0.00,,,0.00,WUHU21623XXSP,2013-05-19 09:32:00,
2013-05-19 05:37:00,66.9,63.5,29.60,SSE,157,0.0,0.0,89,0.00,,,0.00,WUHU21623XXSP,2013-05-19 09:37:00,
2013-05-19 05:42:00,66.9,63.5,29.60,South,180,0.0,0.0,89,0.00,,,0.00,WUHU21623XXSP,2013-05-19 09:42:00,
2013-05-19 05:47:00,66.9,63.5,29.60,South,180,0.0,0.0,89,0.00,,,0.00,WUHU21623XXSP,2013-05-19 09:47:00,
2013-05-19 05:52:00,66.9,63.5,29.61,SSE,157,0.0,0.0,89,0.00,,,0.00,WUHU21623XXSP,2013-05-19 09:52:00,
2013-05-19 05:57:00,66.7,63.4,29.60,South,180,0.0,0.0,89,0.00,,,0.00,WUHU21623XXSP,2013-05-19 09:57:00,
2013-05-19 06:02:00,66.7,63.4,29.61,South,180,0.0,0.0,89,0.00,,,0.00,WUHU21623XXSP,2013-05-19 10:02:00,
2013-05-19 06:07:00,66.7,63.4,29.61,SSW,202,0.0,0.0,89,0.00,,,0.00,WUHU21623XXSP,2013-05-19 10:07:00,
2013-05-19 06:12:00,66.9,63.5,29.61,SW,225,0.0,0.0,89,0.00,,,0.00,WUHU21623XXSP,2013-05-19 10:12:00,
2013-05-19 06:17:00,66.9,63.5,29.61,SW,225,0.0,0.0,89,0.00,,,0.00,WUHU21623XXSP,2013-05-19 10:17:00,
2013-05-19 06:22:00,66.9,63.5,29.60,SW,225,0.0,0.0,89,0.00,,,0.00,WUHU21623XXSP,2013-05-19 10:22:00,
2013-05-19 06:27:00,66.9,63.5,29.61,SW,225,0.0,0.0,89,0.00,,,0.00,WUHU21623XXSP,2013-05-19 10:27:00,
2013-05-19 06:32:00,66.7,63.4,29.62,SW,225,0.0,0.0,89,0.00,,,0.00,WUHU21623XXSP,2013-05-19 10:32:00,
2013-05-19 06:37:00,66.4,63.0,29.62,SW,225,0.0,0.0,89,0.00,,,0.00,WUHU21623XXSP,2013-05-19 10:37:00,
2013-05-19 06:42:00,66.4,63.0,29.62,SW,225,0.0,0.0,89,0.00,,,0.00,WUHU21623XXSP,2013-05-19 10:42:00,
2013-05-19 06:47:00,66.0,63.0,29.62,South,180,0.0,0.0,90,0.00,,,0.00,WUHU21623XXSP,2013-05-19 10:47:00,
2013-05-19 06:52:00,66.0,63.0,29.62,SSW,202,0.0,0.0,90,0.00,,,0.00,WUHU21623XXSP,2013-05-19 10:52:00,
2013-05-19 06:57:00,66.0,63.0,29.62,South,180,0.0,0.0,90,0.00,,,0.00,WUHU21623XXSP,2013-05-19 10:57:00,
2013-05-19 07:02:00,66.0,63.0,29.62,South,180,0.0,0.0,90,0.00,,,0.00,WUHU21623XXSP,2013-05-19 11:02:00,
2013-05-19 07:07:00,66.2,63.1,29.63,SSE,157,0.0,0.0,90,0.00,,,0.00,WUHU21623XXSP,2013-05-19 11:07:00,
2013-05-19 07:12:00,66.6,63.5,29.63,SSE,157,0.0,0.0,90,0.00,,,0.00,WUHU21623XXSP,2013-05-19 11:12:00,
2013-05-19 07:17:00,66.7,63.7,29.63,SSE,157,0.0,0.0,90,0.00,,,0.00,WUHU21623XXSP,2013-05-19 11:17:00,
2013-05-19 07:22:00,66.9,63.9,29.63,SSE,157,0.0,0.0,90,0.00,,,0.00,WUHU21623XXSP,2013-05-19 11:22:00,
2013-05-19 07:27:00,66.9,63.9,29.64,SSE,157,0.0,0.0,90,0.00,,,0.00,WUHU21623XXSP,2013-05-19 11:27:00,
2013-05-19 07:32:00,67.1,64.0,29.64,SSE,157,0.0,0.0,90,0.00,,,0.00,WUHU21623XXSP,2013-05-19 11:32:00,
2013-05-19 07:37:00,67.3,64.2,29.63,SSE,157,0.0,0.0,90,0.00,,,0.00,WUHU21623XXSP,2013-05-19 11:37:00,
2013-05-19 07:42:00,67.3,64.2,29.63,SSE,157,0.0,0.0,90,0.00,,,0.00,WUHU21623XXSP,2013-05-19 11:42:00,
2013-05-19 07:47:00,67.5,64.4,29.63,SSE,157,0.0,0.0,90,0.00,,,0.00,WUHU21623XXSP,2013-05-19 11:47:00,
2013-05-19 07:52:00,67.5,64.4,29.63,SSE,157,0.0,0.0,90,0.00,,,0.00,WUHU21623XXSP,2013-05-19 11:52:00,
2013-05-19 07:57:00,67.6,64.6,29.63,SSE,157,0.0,0.0,90,0.00,,,0.00,WUHU21623XXSP,2013-05-19 11:57:00,
2013-05-19 08:02:00,67.6,64.6,29.63,SE,135,0.0,0.0,90,0.00,,,0.00,WUHU21623XXSP,2013-05-19 12:02:00,
2013-05-19 08:07:00,67.6,64.6,29.64,SE,135,0.0,0.0,90,0.00,,,0.00,WUHU21623XXSP,2013-05-19 12:07:00,
2013-05-19 08:12:00,67.6,64.6,29.64,SSW,202,0.0,0.0,90,0.00,,,0.00,WUHU21623XXSP,2013-05-19 12:12:00,
2013-05-19 08:17:00,67.6,64.6,29.64,SSW,202,0.0,0.0,90,0.00,,,0.00,WUHU21623XXSP,2013-05-19 12:17:00,
2013-05-19 08:22:00,67.8,64.8,29.64,South,180,0.0,0.0,90,0.00,,,0.00,WUHU21623XXSP,2013-05-19 12:22:00,
2013-05-19 08:27:00,67.8,64.8,29.64,South,180,0.0,0.0,90,0.00,,,0.00,WUHU21623XXSP,2013-05-19 12:27:00,
2013-05-19 08:32:00,67.8,64.8,29.64,South,180,0.0,0.0,90,0.00,,,0.00,WUHU21623XXSP,2013-05-19 12:32:00,
2013-05-19 08:37:00,68.2,64.8,29.64,South,180,0.0,0.0,89,0.00,,,0.00,WUHU21623XXSP,2013-05-19 12:37:00,
2013-05-19 08:42:00,68.2,64.8,29.64,SE,135,0.0,0.0,89,0.00,,,0.00,WUHU21623XXSP,2013-05-19 12:42:00,
2013-05-19 08:47:00,68.4,65.0,29.64,SSE,157,0.0,0.0,89,0.00,,,0.00,WUHU21623XXSP,2013-05-19 12:47:00,
2013-05-19 08:52:00,68.5,65.1,29.64,SSE,157,0.0,0.0,89,0.00,,,0.00,WUHU21623XXSP,2013-05-19 12:52:00,
2013-05-19 08:57:00,68.5,65.1,29.64,SSE,157,0.0,0.0,89,0.00,,,0.00,WUHU21623XXSP,2013-05-19 12:57:00,
2013-05-19 09:02:00,68.7,65.3,29.64,SSE,157,0.0,0.0,89,0.00,,,0.00,WUHU21623XXSP,2013-05-19 13:02:00,
2013-05-19 09:07:00,68.7,65.3,29.64,SSE,157,0.0,0.0,89,0.00,,,0.00,WUHU21623XXSP,2013-05-19 13:07:00,
2013-05-19 09:12:00,68.7,65.3,29.64,SE,135,0.0,0.0,89,0.00,,,0.00,WUHU21623XXSP,2013-05-19 13:12:00,
2013-05-19 09:17:00,68.9,65.5,29.64,SSE,157,0.0,0.0,89,0.00,,,0.00,WUHU21623XXSP,2013-05-19 13:17:00,
2013-05-19 09:22:00,69.1,65.7,29.64,SSE,157,0.0,0.0,89,0.00,,,0.00,WUHU21623XXSP,2013-05-19 13:22:00,
2013-05-19 09:27:00,69.3,65.9,29.65,SSE,157,0.0,0.0,89,0.00,,,0.00,WUHU21623XXSP,2013-05-19 13:27:00,
2013-05-19 09:33:00,69.6,66.2,29.66,SSE,157,0.0,0.0,89,0.00,,,0.00,WUHU21623XXSP,2013-05-19 13:33:00,
2013-05-19 09:38:00,70.0,66.4,29.66,SSE,157,0.0,0.0,89,0.00,,,0.00,WUHU21623XXSP,2013-05-19 13:38:00,
2013-05-19 09:43:00,70.3,66.9,29.66,SSE,157,0.0,0.0,89,0.00,,,0.00,WUHU21623XXSP,2013-05-19 13:43:00,
2013-05-19 09:48:00,70.9,67.1,29.66,SSE,157,0.0,0.0,88,0.00,,,0.00,WUHU21623XXSP,2013-05-19 13:48:00,
2013-05-19 09:53:00,70.9,67.1,29.66,SSE,157,0.0,0.0,88,0.00,,,0.00,WUHU21623XXSP,2013-05-19 13:53:00,
2013-05-19 09:58:00,70.7,66.6,29.66,SSE,157,0.0,0.0,87,0.00,,,0.00,WUHU21623XXSP,2013-05-19 13:58:00,
2013-05-19 10:03:00,70.3,66.6,29.66,SSE,157,0.0,0.0,88,0.00,,,0.00,WUHU21623XXSP,2013-05-19 14:03:00,
2013-05-19 10:08:00,70.3,66.6,29.66,SSE,157,0.0,0.0,88,0.00,,,0.00,WUHU21623XXSP,2013-05-19 14:08:00,
2013-05-19 10:13:00,70.3,66.9,29.66,SSE,157,0.0,0.0,89,0.00,,,0.00,WUHU21623XXSP,2013-05-19 14:13:00,
2013-05-19 10:18:00,70.3,66.9,29.65,ESE,112,0.0,0.0,89,0.00,,,0.00,WUHU21623XXSP,2013-05-19 14:18:00,
2013-05-19 10:23:00,70.2,66.4,29.65,SE,135,0.0,0.0,88,0.00,,,0.00,WUHU21623XXSP,2013-05-19 14:23:00,
2013-05-19 10:28:00,70.3,66.6,29.65,South,180,0.0,0.0,88,0.00,,,0.00,WUHU21623XXSP,2013-05-19 14:28:00,
2013-05-19 10:33:00,70.3,66.6,29.65,SSE,157,0.0,0.0,88,0.00,,,0.00,WUHU21623XXSP,2013-05-19 14:33:00,
2013-05-19 10:38:00,70.0,66.1,29.65,SSE,157,0.0,0.0,88,0.00,,,0.00,WUHU21623XXSP,2013-05-19 14:38:00,
2013-05-19 10:43:00,69.6,66.2,29.64,SSE,157,0.0,0.0,89,0.00,,,0.00,WUHU21623XXSP,2013-05-19 14:43:00,
2013-05-19 10:48:00,69.4,66.0,29.64,SSE,157,0.0,0.0,89,0.00,,,0.00,WUHU21623XXSP,2013-05-19 14:48:00,
2013-05-19 10:53:00,69.4,66.0,29.64,SSE,157,0.0,0.0,89,0.00,,,0.00,WUHU21623XXSP,2013-05-19 14:53:00,
2013-05-19 10:58:00,69.4,66.0,29.63,SW,225,0.0,0.0,89,0.00,,,0.00,WUHU21623XXSP,2013-05-19 14:58:00,
2013-05-19 11:03:00,69.4,66.0,29.64,South,180,0.0,0.0,89,0.00,,,0.00,WUHU21623XXSP,2013-05-19 15:03:00,
2013-05-19 11:08:00,69.6,66.2,29.63,South,180,0.0,0.0,89,0.00,,,0.00,WUHU21623XXSP,2013-05-19 15:08:00,
2013-05-19 11:13:00,69.6,66.6,29.63,SSE,157,0.0,0.0,90,0.00,,,0.00,WUHU21623XXSP,2013-05-19 15:13:00,
2013-05-19 11:18:00,70.5,67.5,29.63,SSE,157,0.0,0.0,90,0.00,,,0.00,WUHU21623XXSP,2013-05-19 15:18:00,
2013-05-19 11:23:00,70.7,67.6,29.64,SSE,157,0.0,0.0,90,0.00,,,0.00,WUHU21623XXSP,2013-05-19 15:23:00,
2013-05-19 11:28:00,71.8,68.7,29.63,SSE,157,0.0,0.0,90,0.00,,,0.00,WUHU21623XXSP,2013-05-19 15:28:00,
2013-05-19 11:33:00,72.5,69.1,29.63,SE,135,0.0,0.0,89,0.00,,,0.00,WUHU21623XXSP,2013-05-19 15:33:00,
2013-05-19 11:38:00,73.0,69.3,29.64,SSE,157,0.0,0.0,88,0.00,,,0.00,WUHU21623XXSP,2013-05-19 15:38:00,
2013-05-19 11:43:00,73.6,69.8,29.64,South,180,0.0,0.0,88,0.00,,,0.00,WUHU21623XXSP,2013-05-19 15:43:00,
2013-05-19 11:48:00,73.9,69.9,29.64,South,180,0.0,0.0,87,0.00,,,0.00,WUHU21623XXSP,2013-05-19 15:48:00,
2013-05-19 11:53:00,74.8,70.1,29.65,South,180,0.0,0.0,85,0.00,,,0.00,WUHU21623XXSP,2013-05-19 15:53:00,
2013-05-19 11:58:00,75.4,70.3,29.65,SSE,157,0.0,0.0,84,0.00,,,0.00,WUHU21623XXSP,2013-05-19 15:58:00,
2013-05-19 12:03:00,76.1,70.6,29.65,SSE,157,0.0,0.0,83,0.00,,,0.00,WUHU21623XXSP,2013-05-19 16:03:00,
2013-05-19 12:08:00,76.6,70.7,29.65,SSE,157,0.0,0.0,82,0.00,,,0.00,WUHU21623XXSP,2013-05-19 16:08:00,
2013-05-19 12:13:00,77.2,70.5,29.65,South,180,0.0,0.0,80,0.00,,,0.00,WUHU21623XXSP,2013-05-19 16:13:00,
2013-05-19 12:18:00,77.7,70.7,29.65,South,180,0.0,0.0,79,0.00,,,0.00,WUHU21623XXSP,2013-05-19 16:18:00,
2013-05-19 12:23:00,78.3,70.8,29.65,SSE,157,0.0,0.0,78,0.00,,,0.00,WUHU21623XXSP,2013-05-19 16:23:00,
2013-05-19 12:28:00,79.0,70.7,29.65,SE,135,0.0,0.0,76,0.00,,,0.00,WUHU21623XXSP,2013-05-19 16:28:00,
2013-05-19 12:33:00,80.1,71.0,29.65,SSE,157,0.0,0.0,74,0.00,,,0.00,WUHU21623XXSP,2013-05-19 16:33:00,
2013-05-19 12:38:00,81.3,71.4,29.65,NE,45,0.0,0.0,72,0.00,,,0.00,WUHU21623XXSP,2013-05-19 16:38:00,
2013-05-19 12:43:00,83.3,72.9,29.65,NE,45,0.0,0.0,71,0.00,,,0.00,WUHU21623XXSP,2013-05-19 16:43:00,
2013-05-19 12:48:00,85.3,73.1,29.64,NE,45,0.0,0.0,67,0.00,,,0.00,WUHU21623XXSP,2013-05-19 16:48:00,
2013-05-19 12:53:00,86.5,72.9,29.64,SE,135,0.0,0.0,64,0.00,,,0.00,WUHU21623XXSP,2013-05-19 16:53:00,
2013-05-19 12:58:00,87.1,72.5,29.64,NNW,337,0.0,0.0,62,0.00,,,0.00,WUHU21623XXSP,2013-05-19 16:58:00,
2013-05-19 13:03:00,86.2,71.2,29.65,NNW,337,0.0,0.0,61,0.00,,,0.00,WUHU21623XXSP,2013-05-19 17:03:00,
2013-05-19 13:08:00,85.3,70.8,29.64,South,180,0.0,0.0,62,0.00,,,0.00,WUHU21623XXSP,2013-05-19 17:08:00,
2013-05-19 13:13:00,84.4,70.4,29.64,SSW,202,0.0,0.0,63,0.00,,,0.00,WUHU21623XXSP,2013-05-19 17:13:00,
2013-05-19 13:18:00,83.5,70.0,29.63,SSW,202,0.0,0.0,64,0.00,,,0.00,WUHU21623XXSP,2013-05-19 17:18:00,
2013-05-19 13:23:00,82.9,69.3,29.63,SSW,202,0.0,0.0,64,0.00,,,0.00,WUHU21623XXSP,2013-05-19 17:23:00,
2013-05-19 13:28:00,82.2,69.2,29.63,SSW,202,0.0,0.0,65,0.00,,,0.00,WUHU21623XXSP,2013-05-19 17:28:00,
2013-05-19 13:33:00,82.6,69.5,29.62,South,180,0.0,0.0,65,0.00,,,0.00,WUHU21623XXSP,2013-05-19 17:33:00,
2013-05-19 13:38:00,82.8,69.3,29.62,South,180,0.0,0.0,64,0.00,,,0.00,WUHU21623XXSP,2013-05-19 17:38:00,
2013-05-19 13:43:00,83.1,69.2,29.62,SSE,157,0.0,0.0,63,0.00,,,0.00,WUHU21623XXSP,2013-05-19 17:43:00,
2013-05-19 13:48:00,83.3,69.3,29.62,SSE,157,0.0,0.0,63,0.00,,,0.00,WUHU21623XXSP,2013-05-19 17:48:00,
2013-05-19 13:53:00,83.8,69.9,29.62,WSW,247,0.0,0.0,63,0.00,,,0.00,WUHU21623XXSP,2013-05-19 17:53:00,
2013-05-19 13:58:00,84.2,70.3,29.62,SW,225,0.0,0.0,63,0.00,,,0.00,WUHU21623XXSP,2013-05-19 17:58:00,
2013-05-19 14:03:00,84.6,70.1,29.62,SSE,157,0.0,0.0,62,0.00,,,0.00,WUHU21623XXSP,2013-05-19 18:03:00,
2013-05-19 14:08:00,84.9,70.4,29.62,South,180,0.0,0.0,62,0.00,,,0.00,WUHU21623XXSP,2013-05-19 18:08:00,
2013-05-19 14:13:00,85.6,70.6,29.62,SW,225,0.0,0.0,61,0.00,,,0.00,WUHU21623XXSP,2013-05-19 18:13:00,
2013-05-19 14:18:00,86.2,70.7,29.61,SW,225,0.0,0.0,60,0.00,,,0.00,WUHU21623XXSP,2013-05-19 18:18:00,
2013-05-19 14:23:00,86.4,70.3,29.61,SSE,157,0.0,0.0,59,0.00,,,0.00,WUHU21623XXSP,2013-05-19 18:23:00,
2013-05-19 14:28:00,86.4,69.8,29.60,SE,135,0.0,0.0,58,0.00,,,0.00,WUHU21623XXSP,2013-05-19 18:28:00,
2013-05-19 14:33:00,85.8,69.8,29.60,SW,225,0.0,0.0,59,0.00,,,0.00,WUHU21623XXSP,2013-05-19 18:33:00,
2013-05-19 14:38:00,86.2,70.2,29.60,ESE,112,0.0,0.0,59,0.00,,,0.00,WUHU21623XXSP,2013-05-19 18:38:00,
2013-05-19 14:43:00,86.4,69.8,29.60,SE,135,0.0,0.0,58,0.00,,,0.00,WUHU21623XXSP,2013-05-19 18:43:00,
2013-05-19 14:48:00,86.4,69.8,29.60,SE,135,0.0,0.0,58,0.00,,,0.00,WUHU21623XXSP,2013-05-19 18:48:00,
2013-05-19 14:53:00,86.5,69.5,29.60,SE,135,0.0,0.0,57,0.00,,,0.00,WUHU21623XXSP,2013-05-19 18:53:00,
2013-05-19 14:58:00,86.4,69.8,29.60,ESE,112,0.0,0.0,58,0.00,,,0.00,WUHU21623XXSP,2013-05-19 18:58:00,
2013-05-19 15:03:00,86.5,69.5,29.60,South,180,0.9,0.9,57,0.00,,,0.00,WUHU21623XXSP,2013-05-19 19:03:00,
2013-05-19 15:08:00,86.5,68.9,29.60,WSW,247,0.0,0.9,56,0.00,,,0.00,WUHU21623XXSP,2013-05-19 19:08:00,
2013-05-19 15:13:00,87.1,69.5,29.60,WSW,247,0.0,0.0,56,0.00,,,0.00,WUHU21623XXSP,2013-05-19 19:13:00,
2013-05-19 15:18:00,87.4,69.8,29.60,SW,225,0.0,0.0,56,0.00,,,0.00,WUHU21623XXSP,2013-05-19 19:18:00,
2013-05-19 15:23:00,87.6,70.0,29.59,South,180,0.0,0.0,56,0.00,,,0.00,WUHU21623XXSP,2013-05-19 19:23:00,
2013-05-19 15:28:00,87.6,70.0,29.59,SSW,202,0.0,0.0,56,0.00,,,0.00,WUHU21623XXSP,2013-05-19 19:28:00,
2013-05-19 15:33:00,88.2,69.9,29.59,SW,225,0.0,0.0,55,0.00,,,0.00,WUHU21623XXSP,2013-05-19 19:33:00,
2013-05-19 15:38:00,88.3,69.6,29.59,WSW,247,0.0,0.0,54,0.00,,,0.00,WUHU21623XXSP,2013-05-19 19:38:00,
2013-05-19 15:43:00,88.3,69.6,29.58,South,180,0.0,0.0,54,0.00,,,0.00,WUHU21623XXSP,2013-05-19 19:43:00,
2013-05-19 15:48:00,88.5,69.7,29.58,SSE,157,0.0,0.0,54,0.00,,,0.00,WUHU21623XXSP,2013-05-19 19:48:00,
2013-05-19 15:53:00,88.0,69.2,29.58,SSE,157,0.0,0.0,54,0.00,,,0.00,WUHU21623XXSP,2013-05-19 19:53:00,
2013-05-19 15:58:00,88.0,69.2,29.57,WNW,292,0.0,0.0,54,0.00,,,0.00,WUHU21623XXSP,2013-05-19 19:58:00,
2013-05-19 16:03:00,87.6,68.9,29.57,WNW,292,0.0,0.0,54,0.00,,,0.00,WUHU21623XXSP,2013-05-19 20:03:00,
2013-05-19 16:08:00,87.4,68.7,29.57,WNW,292,0.0,0.0,54,0.00,,,0.00,WUHU21623XXSP,2013-05-19 20:08:00,
2013-05-19 16:13:00,87.3,69.1,29.56,WNW,292,0.0,0.0,55,0.00,,,0.00,WUHU21623XXSP,2013-05-19 20:13:00,
2013-05-19 16:18:00,87.1,68.9,29.57,WNW,292,0.0,0.0,55,0.00,,,0.00,WUHU21623XXSP,2013-05-19 20:18:00,
2013-05-19 16:23:00,86.5,68.4,29.57,NNE,22,0.0,0.0,55,0.00,,,0.00,WUHU21623XXSP,2013-05-19 20:23:00,
2013-05-19 16:28:00,85.8,68.3,29.57,NNE,22,0.0,0.0,56,0.00,,,0.00,WUHU21623XXSP,2013-05-19 20:28:00,
2013-05-19 16:33:00,85.6,68.6,29.57,NNE,22,0.0,0.0,57,0.00,,,0.00,WUHU21623XXSP,2013-05-19 20:33:00,
2013-05-19 16:38:00,85.3,68.3,29.57,East,90,0.0,0.0,57,0.00,,,0.00,WUHU21623XXSP,2013-05-19 20:38:00,
2013-05-19 16:43:00,84.6,68.7,29.58,East,90,0.0,0.0,59,0.00,,,0.00,WUHU21623XXSP,2013-05-19 20:43:00,
2013-05-19 16:48:00,84.2,68.4,29.57,East,90,0.0,0.0,59,0.00,,,0.00,WUHU21623XXSP,2013-05-19 20:48:00,
2013-05-19 16:53:00,84.9,69.0,29.57,East,90,0.0,0.0,59,0.00,,,0.00,WUHU21623XXSP,2013-05-19 20:53:00,
2013-05-19 16:58:00,85.8,69.3,29.57,East,90,0.0,0.0,58,0.00,,,0.00,WUHU21623XXSP,2013-05-19 20:58:00,
2013-05-19 17:03:00,85.8,68.8,29.57,East,90,0.0,0.0,57,0.00,,,0.00,WUHU21623XXSP,2013-05-19 21:03:00,
2013-05-19 17:08:00,85.3,68.3,29.57,East,90,0.0,0.0,57,0.00,,,0.00,WUHU21623XXSP,2013-05-19 21:08:00,
2013-05-19 17:13:00,84.0,68.2,29.58,East,90,0.0,0.0,59,0.00,,,0.00,WUHU21623XXSP,2013-05-19 21:13:00,
2013-05-19 17:18:00,83.3,68.0,29.58,East,90,0.0,0.0,60,0.00,,,0.00,WUHU21623XXSP,2013-05-19 21:18:00,
2013-05-19 17:23:00,83.5,68.6,29.58,East,90,0.0,0.0,61,0.00,,,0.00,WUHU21623XXSP,2013-05-19 21:23:00,
2013-05-19 17:28:00,83.1,68.3,29.58,East,90,0.0,0.0,61,0.00,,,0.00,WUHU21623XXSP,2013-05-19 21:28:00,
2013-05-19 17:33:00,82.9,68.1,29.58,East,90,0.0,0.0,61,0.00,,,0.00,WUHU21623XXSP,2013-05-19 21:33:00,
2013-05-19 17:38:00,82.2,67.8,29.58,East,90,0.0,0.0,62,0.00,,,0.00,WUHU21623XXSP,2013-05-19 21:38:00,
2013-05-19 17:43:00,81.7,67.4,29.58,East,90,0.0,0.0,62,0.00,,,0.00,WUHU21623XXSP,2013-05-19 21:43:00,
2013-05-19 17:48:00,81.5,67.6,29.58,East,90,0.0,0.0,63,0.00,,,0.00,WUHU21623XXSP,2013-05-19 21:48:00,
2013-05-19 17:53:00,81.1,67.8,29.59,East,90,0.0,0.0,64,0.00,,,0.00,WUHU21623XXSP,2013-05-19 21:53:00,
2013-05-19 17:58:00,80.8,67.4,29.58,East,90,0.0,0.0,64,0.00,,,0.00,WUHU21623XXSP,2013-05-19 21:58:00,
2013-05-19 18:03:00,80.6,67.7,29.59,East,90,0.0,0.0,65,0.00,,,0.00,WUHU21623XXSP,2013-05-19 22:03:00,
2013-05-19 18:08:00,80.8,67.9,29.59,East,90,0.0,0.0,65,0.00,,,0.00,WUHU21623XXSP,2013-05-19 22:08:00,
2013-05-19 18:13:00,80.6,67.7,29.59,East,90,0.0,0.0,65,0.00,,,0.00,WUHU21623XXSP,2013-05-19 22:13:00,
2013-05-19 18:18:00,80.6,67.7,29.58,East,90,0.0,0.0,65,0.00,,,0.00,WUHU21623XXSP,2013-05-19 22:18:00,
2013-05-19 18:23:00,80.4,67.6,29.59,East,90,0.0,0.0,65,0.00,,,0.00,WUHU21623XXSP,2013-05-19 22:23:00,
2013-05-19 18:28:00,80.4,67.6,29.58,East,90,0.0,0.0,65,0.00,,,0.00,WUHU21623XXSP,2013-05-19 22:28:00,
2013-05-19 18:33:00,80.4,68.0,29.59,East,90,0.0,0.0,66,0.00,,,0.00,WUHU21623XXSP,2013-05-19 22:33:00,
2013-05-19 18:38:00,80.2,67.8,29.59,East,90,0.0,0.0,66,0.00,,,0.00,WUHU21623XXSP,2013-05-19 22:38:00,
2013-05-19 18:43:00,79.9,67.5,29.58,East,90,0.0,0.0,66,0.00,,,0.00,WUHU21623XXSP,2013-05-19 22:43:00,
2013-05-19 18:48:00,79.5,67.1,29.59,East,90,0.0,0.0,66,0.00,,,0.00,WUHU21623XXSP,2013-05-19 22:48:00,
2013-05-19 18:53:00,79.0,67.0,29.58,East,90,0.0,0.0,67,0.00,,,0.00,WUHU21623XXSP,2013-05-19 22:53:00,
2013-05-19 18:58:00,78.6,67.1,29.59,East,90,0.0,0.0,68,0.00,,,0.00,WUHU21623XXSP,2013-05-19 22:58:00,
2013-05-19 19:03:00,78.1,67.1,29.58,East,90,0.0,0.0,69,0.00,,,0.00,WUHU21623XXSP,2013-05-19 23:03:00,
2013-05-19 19:08:00,77.7,66.8,29.58,East,90,0.0,0.0,69,0.00,,,0.00,WUHU21623XXSP,2013-05-19 23:08:00,
2013-05-19 19:13:00,77.2,66.7,29.58,East,90,0.0,0.0,70,0.00,,,0.00,WUHU21623XXSP,2013-05-19 23:13:00,
2013-05-19 19:19:00,76.8,66.8,29.58,East,90,0.0,0.0,71,0.00,,,0.00,WUHU21623XXSP,2013-05-19 23:19:00,
2013-05-19 19:24:00,76.3,66.2,29.58,East,90,0.0,0.0,71,0.00,,,0.00,WUHU21623XXSP,2013-05-19 23:24:00,
2013-05-19 19:29:00,75.9,66.3,29.58,East,90,0.0,0.0,72,0.00,,,0.00,WUHU21623XXSP,2013-05-19 23:29:00,
2013-05-19 19:34:00,75.4,66.5,29.58,East,90,0.0,0.0,74,0.00,,,0.00,WUHU21623XXSP,2013-05-19 23:34:00,
2013-05-19 19:39:00,75.0,66.2,29.58,East,90,0.0,0.0,74,0.00,,,0.00,WUHU21623XXSP,2013-05-19 23:39:00,
2013-05-19 19:44:00,74.8,66.4,29.58,East,90,0.0,0.0,75,0.00,,,0.00,WUHU21623XXSP,2013-05-19 23:44:00,
2013-05-19 19:49:00,74.5,66.4,29.58,South,180,0.0,0.0,76,0.00,,,0.00,WUHU21623XXSP,2013-05-19 23:49:00,
2013-05-19 19:54:00,74.1,66.5,29.58,South,180,0.0,0.0,77,0.00,,,0.00,WUHU21623XXSP,2013-05-19 23:54:00,
2013-05-19 20:00:00,74.1,66.5,29.58,South,180,0.0,0.0,77,0.00,,,0.00,WUHU21623XXSP,2013-05-20 00:00:00,
2013-05-19 20:05:00,73.8,66.1,29.58,South,180,0.0,0.0,77,0.00,,,0.00,WUHU21623XXSP,2013-05-20 00:05:00,
2013-05-19 20:10:00,73.6,65.9,29.58,South,180,0.0,0.0,77,0.00,,,0.00,WUHU21623XXSP,2013-05-20 00:10:00,
2013-05-19 20:15:00,73.4,66.2,29.58,South,180,0.0,0.0,78,0.00,,,0.00,WUHU21623XXSP,2013-05-20 00:15:00,
2013-05-19 20:20:00,72.9,65.6,29.58,South,180,0.0,0.0,78,0.00,,,0.00,WUHU21623XXSP,2013-05-20 00:20:00,
2013-05-19 20:25:00,72.5,65.6,29.57,South,180,0.0,0.0,79,0.00,,,0.00,WUHU21623XXSP,2013-05-20 00:25:00,
2013-05-19 20:30:00,72.3,65.5,29.58,South,180,0.0,0.0,79,0.00,,,0.00,WUHU21623XXSP,2013-05-20 00:30:00,
2013-05-19 20:35:00,71.8,65.3,29.58,South,180,0.0,0.0,80,0.00,,,0.00,WUHU21623XXSP,2013-05-20 00:35:00,
2013-05-19 20:40:00,71.8,65.6,29.58,South,180,0.0,0.0,81,0.00,,,0.00,WUHU21623XXSP,2013-05-20 00:40:00,
2013-05-19 20:45:00,71.4,65.3,29.58,South,180,0.0,0.0,81,0.00,,,0.00,WUHU21623XXSP,2013-05-20 00:45:00,
2013-05-19 20:50:00,71.4,65.6,29.58,South,180,0.0,0.0,82,0.00,,,0.00,WUHU21623XXSP,2013-05-20 00:50:00,
2013-05-19 20:55:00,71.4,65.6,29.59,South,180,0.0,0.0,82,0.00,,,0.00,WUHU21623XXSP,2013-05-20 00:55:00,
2013-05-19 21:00:00,71.4,66.0,29.59,SSE,157,0.0,0.0,83,0.00,,,0.00,WUHU21623XXSP,2013-05-20 01:00:00,
2013-05-19 21:05:00,71.4,66.0,29.59,South,180,0.0,0.0,83,0.00,,,0.00,WUHU21623XXSP,2013-05-20 01:05:00,
2013-05-19 21:10:00,71.4,66.0,29.59,SW,225,0.0,0.0,83,0.00,,,0.00,WUHU21623XXSP,2013-05-20 01:10:00,
2013-05-19 21:15:00,71.2,65.8,29.59,South,180,0.0,0.0,83,0.00,,,0.00,WUHU21623XXSP,2013-05-20 01:15:00,
2013-05-19 21:20:00,71.2,65.8,29.59,SSE,157,0.0,0.0,83,0.00,,,0.00,WUHU21623XXSP,2013-05-20 01:20:00,
2013-05-19 21:25:00,71.1,65.6,29.59,SE,135,0.0,0.0,83,0.00,,,0.00,WUHU21623XXSP,2013-05-20 01:25:00,
2013-05-19 21:30:00,70.9,65.8,29.59,SW,225,0.0,0.0,84,0.00,,,0.00,WUHU21623XXSP,2013-05-20 01:30:00,
2013-05-19 21:35:00,70.7,65.6,29.60,South,180,0.0,0.0,84,0.00,,,0.00,WUHU21623XXSP,2013-05-20 01:35:00,
2013-05-19 21:40:00,70.5,65.8,29.60,South,180,0.0,0.0,85,0.00,,,0.00,WUHU21623XXSP,2013-05-20 01:40:00,
2013-05-19 21:45:00,70.2,65.4,29.59,South,180,0.0,0.0,85,0.00,,,0.00,WUHU21623XXSP,2013-05-20 01:45:00,
2013-05-19 21:50:00,70.0,65.6,29.59,SSE,157,0.0,0.0,86,0.00,,,0.00,WUHU21623XXSP,2013-05-20 01:50:00,
2013-05-19 21:55:00,69.8,65.4,29.60,SSW,202,0.0,0.0,86,0.00,,,0.00,WUHU21623XXSP,2013-05-20 01:55:00,
2013-05-19 22:00:00,69.6,65.2,29.60,South,180,0.0,0.0,86,0.00,,,0.00,WUHU21623XXSP,2013-05-20 02:00:00,
2013-05-19 22:05:00,69.6,65.5,29.60,SSE,157,0.0,0.0,87,0.00,,,0.00,WUHU21623XXSP,2013-05-20 02:05:00,
2013-05-19 22:10:00,69.4,65.4,29.60,SSE,157,0.0,0.0,87,0.00,,,0.00,WUHU21623XXSP,2013-05-20 02:10:00,
2013-05-19 22:15:00,69.3,65.5,29.60,SSE,157,0.0,0.0,88,0.00,,,0.00,WUHU21623XXSP,2013-05-20 02:15:00,
2013-05-19 22:20:00,69.1,65.3,29.61,SSE,157,0.0,0.0,88,0.00,,,0.00,WUHU21623XXSP,2013-05-20 02:20:00,
2013-05-19 22:25:00,68.9,65.2,29.61,SSE,157,0.0,0.0,88,0.00,,,0.00,WUHU21623XXSP,2013-05-20 02:25:00,
2013-05-19 22:30:00,68.7,65.0,29.61,SSE,157,0.0,0.0,88,0.00,,,0.00,WUHU21623XXSP,2013-05-20 02:30:00,
2013-05-19 22:35:00,68.4,65.0,29.61,SSE,157,0.0,0.0,89,0.00,,,0.00,WUHU21623XXSP,2013-05-20 02:35:00,
2013-05-19 22:40:00,68.2,64.8,29.61,SSE,157,0.0,0.0,89,0.00,,,0.00,WUHU21623XXSP,2013-05-20 02:40:00,
2013-05-19 22:45:00,68.2,64.8,29.61,SSE,157,0.0,0.0,89,0.00,,,0.00,WUHU21623XXSP,2013-05-20 02:45:00,
2013-05-19 22:50:00,67.8,64.4,29.61,SSE,157,0.0,0.0,89,0.00,,,0.00,WUHU21623XXSP,2013-05-20 02:50:00,
2013-05-19 22:55:00,67.8,64.4,29.61,SSW,202,0.0,0.0,89,0.00,,,0.00,WUHU21623XXSP,2013-05-20 02:55:00,
2013-05-19 23:00:00,67.8,64.9,29.60,SSW,202,0.0,0.0,90,0.00,,,0.00,WUHU21623XXSP,2013-05-20 03:00:00,
2013-05-19 23:05:00,68.2,65.1,29.61,SSE,157,0.0,0.0,90,0.00,,,0.00,WUHU21623XXSP,2013-05-20 03:05:00,
2013-05-19 23:10:00,68.2,65.1,29.60,SSE,157,0.0,0.0,90,0.00,,,0.00,WUHU21623XXSP,2013-05-20 03:10:00,
2013-05-19 23:15:00,68.4,65.3,29.60,SSW,202,0.0,0.0,90,0.00,,,0.00,WUHU21623XXSP,2013-05-20 03:15:00,
2013-05-19 23:20:00,68.4,65.3,29.60,South,180,0.0,0.0,90,0.00,,,0.00,WUHU21623XXSP,2013-05-20 03:20:00,
2013-05-19 23:25:00,68.4,65.3,29.60,SW,225,0.0,6.7,90,0.00,,,0.00,WUHU21623XXSP,2013-05-20 03:25:00,
2013-05-19 23:30:00,68.4,65.3,29.60,SSE,157,0.0,6.7,90,0.00,,,0.00,WUHU21623XXSP,2013-05-20 03:30:00,
2013-05-19 23:35:00,68.2,65.1,29.59,SW,225,0.0,0.0,90,0.00,,,0.00,WUHU21623XXSP,2013-05-20 03:35:00,
2013-05-19 23:40:00,67.8,64.8,29.59,South,180,0.0,1.1,90,0.00,,,0.00,WUHU21623XXSP,2013-05-20 03:40:00,
2013-05-19 23:45:00,67.8,64.8,29.59,South,180,0.0,1.1,90,0.00,,,0.00,WUHU21623XXSP,2013-05-20 03:45:00,
2013-05-19 23:50:00,67.8,64.8,29.60,SW,225,0.0,0.0,90,0.00,,,0.00,WUHU21623XXSP,2013-05-20 03:50:00,
2013-05-19 23:55:00,68.2,65.1,29.60,SSW,202,0.0,0.0,90,0.00,,,0.00,WUHU21623XXSP,2013-05-20 03:55:00,